createdAt,value
2018-11-25T00:00:18.337Z,100480.77
2018-11-25T00:02:46.890Z,100478.63
2018-11-25T00:05:15.465Z,100477.80
2018-11-25T00:07:43.950Z,100478.78
2018-11-25T00:10:12.523Z,100484.19
2018-11-25T00:15:09.992Z,100480.66
2018-11-25T00:17:38.479Z,100483.83
2018-11-25T00:20:10.355Z,100477.02
2018-11-25T00:22:39.071Z,100484.80
2018-11-25T00:25:10.924Z,100482.77
2018-11-25T00:27:39.471Z,100481.97
2018-11-25T00:30:11.704Z,100478.67
2018-11-25T00:32:40.217Z,100476.44
2018-11-25T00:35:10.071Z,100469.12
2018-11-25T00:37:38.596Z,100473.54
2018-11-25T00:40:09.070Z,100474.55
2018-11-25T00:42:37.587Z,100469.55
2018-11-25T00:45:08.778Z,100470.56
2018-11-25T00:47:37.262Z,100473.38
2018-11-25T00:50:08.115Z,100468.28
2018-11-25T00:52:36.681Z,100469.58
2018-11-25T00:55:06.216Z,100469.86
2018-11-25T00:57:34.690Z,100468.59
2018-11-25T01:00:03.667Z,100468.59
2018-11-25T01:02:32.225Z,100470.77
2018-11-25T01:05:00.806Z,100473.52
2018-11-25T01:07:29.362Z,100471.97
2018-11-25T01:09:57.885Z,100466.75
2018-11-25T01:12:26.435Z,100474.31
2018-11-25T01:14:56.199Z,100474.58
2018-11-25T01:17:24.704Z,100466.86
2018-11-25T01:19:53.227Z,100465.81
2018-11-25T01:22:21.779Z,100468.78
2018-11-25T01:24:50.290Z,100470.09
2018-11-25T01:27:18.802Z,100464.66
2018-11-25T01:29:47.842Z,100474.95
2018-11-25T01:32:16.431Z,100477.02
2018-11-25T01:34:44.917Z,100472.16
2018-11-25T01:37:13.456Z,100475.62
2018-11-25T01:39:41.999Z,100481.67
2018-11-25T01:42:10.526Z,100466.33
2018-11-25T01:44:39.068Z,100472.77
2018-11-25T01:47:07.586Z,100474.70
2018-11-25T01:49:36.233Z,100466.80
2018-11-25T01:52:04.971Z,100468.95
2018-11-25T01:54:33.614Z,100468.86
2018-11-25T01:57:02.156Z,100467.23
2018-11-25T01:59:30.650Z,100468.09
2018-11-25T02:01:59.147Z,100468.09
2018-11-25T02:04:27.638Z,100469.70
2018-11-25T02:06:56.127Z,100476.17
2018-11-25T02:09:24.627Z,100468.09
2018-11-25T02:11:53.218Z,100470.06
2018-11-25T02:14:21.714Z,100469.01
2018-11-25T02:16:50.265Z,100461.52
2018-11-25T02:19:18.934Z,100463.33
2018-11-25T02:21:47.547Z,100460.97
2018-11-25T02:24:16.079Z,100465.39
2018-11-25T02:26:44.561Z,100464.49
2018-11-25T02:29:13.127Z,100466.30
2018-11-25T02:31:41.656Z,100457.50
2018-11-25T02:34:10.290Z,100453.92
2018-11-25T02:36:38.798Z,100452.97
2018-11-25T02:39:09.114Z,100450.59
2018-11-25T02:41:37.686Z,100447.30
2018-11-25T02:44:06.262Z,100442.33
2018-11-25T02:46:34.767Z,100444.64
2018-11-25T02:49:03.336Z,100448.38
2018-11-25T02:51:31.843Z,100443.16
2018-11-25T02:54:00.434Z,100436.40
2018-11-25T02:56:28.913Z,100440.84
2018-11-25T02:58:57.470Z,100442.40
2018-11-25T03:01:26.047Z,100434.10
2018-11-25T03:03:54.566Z,100436.25
2018-11-25T03:06:23.868Z,100434.72
2018-11-25T03:08:51.708Z,100434.10
2018-11-25T03:11:20.301Z,100436.43
2018-11-25T03:13:48.807Z,100443.72
2018-11-25T03:16:17.318Z,100442.41
2018-11-25T03:18:45.831Z,100440.45
2018-11-25T03:21:14.435Z,100444.36
2018-11-25T03:23:43.002Z,100442.38
2018-11-25T03:26:11.806Z,100452.80
2018-11-25T03:28:40.290Z,100447.63
2018-11-25T03:31:08.832Z,100452.14
2018-11-25T03:33:37.417Z,100443.92
2018-11-25T03:36:06.224Z,100446.86
2018-11-25T03:38:34.714Z,100451.45
2018-11-25T03:41:03.267Z,100447.38
2018-11-25T03:43:31.783Z,100449.92
2018-11-25T03:46:00.370Z,100446.84
2018-11-25T03:48:29.155Z,100447.68
2018-11-25T03:50:57.656Z,100457.75
2018-11-25T03:53:26.155Z,100460.06
2018-11-25T03:55:54.699Z,100457.28
2018-11-25T03:58:23.379Z,100459.28
2018-11-25T04:00:51.872Z,100462.07
2018-11-25T04:03:20.402Z,100462.32
2018-11-25T04:05:50.370Z,100460.87
2018-11-25T04:08:18.958Z,100460.73
2018-11-25T04:10:47.467Z,100467.86
2018-11-25T04:13:16.040Z,100471.77
2018-11-25T04:15:44.623Z,100465.22
2018-11-25T04:18:13.194Z,100461.34
2018-11-25T04:20:41.727Z,100462.32
2018-11-25T04:23:10.204Z,100458.95
2018-11-25T04:25:38.811Z,100461.56
2018-11-25T04:28:07.480Z,100459.78
2018-11-25T04:30:36.051Z,100459.09
2018-11-25T04:33:04.668Z,100458.27
2018-11-25T04:35:33.186Z,100461.02
2018-11-25T04:38:01.684Z,100462.03
2018-11-25T04:40:30.998Z,100457.80
2018-11-25T04:42:59.500Z,100461.56
2018-11-25T04:45:28.024Z,100461.86
2018-11-25T04:47:56.555Z,100462.69
2018-11-25T04:50:25.091Z,100459.36
2018-11-25T04:52:53.755Z,100465.25
2018-11-25T04:55:22.313Z,100463.73
2018-11-25T04:57:51.975Z,100466.95
2018-11-25T05:00:20.782Z,100469.92
2018-11-25T05:02:50.127Z,100465.66
2018-11-25T05:05:18.677Z,100467.17
2018-11-25T05:07:47.271Z,100465.72
2018-11-25T05:10:16.689Z,100468.18
2018-11-25T05:12:45.231Z,100469.30
2018-11-25T05:15:17.983Z,100469.56
2018-11-25T05:17:46.472Z,100475.13
2018-11-25T05:20:15.757Z,100476.15
2018-11-25T05:22:44.290Z,100476.22
2018-11-25T05:25:15.859Z,100478.42
2018-11-25T05:27:44.439Z,100475.38
2018-11-25T05:30:14.345Z,100471.62
2018-11-25T05:32:43.067Z,100469.01
2018-11-25T05:35:15.002Z,100471.33
2018-11-25T05:37:43.634Z,100472.56
2018-11-25T05:40:14.100Z,100467.27
2018-11-25T05:42:42.911Z,100462.97
2018-11-25T05:45:15.330Z,100467.95
2018-11-25T05:47:43.982Z,100471.66
2018-11-25T05:50:14.372Z,100468.18
2018-11-25T05:52:43.132Z,100473.47
2018-11-25T05:55:12.938Z,100470.06
2018-11-25T05:57:41.698Z,100471.70
2018-11-25T06:00:31.880Z,100474.77
2018-11-25T06:03:00.907Z,100466.16
2018-11-25T06:05:29.419Z,100467.17
2018-11-25T06:07:57.943Z,100470.39
2018-11-25T06:10:26.459Z,100460.50
2018-11-25T06:12:55.018Z,100469.55
2018-11-25T06:15:23.569Z,100463.11
2018-11-25T06:17:52.090Z,100469.16
2018-11-25T06:20:20.705Z,100463.94
2018-11-25T06:22:49.299Z,100467.09
2018-11-25T06:25:21.583Z,100470.02
2018-11-25T06:27:50.151Z,100466.05
2018-11-25T06:30:21.271Z,100468.80
2018-11-25T06:32:49.822Z,100468.33
2018-11-25T06:35:19.496Z,100467.23
2018-11-25T06:37:48.587Z,100467.64
2018-11-25T06:40:19.187Z,100470.25
2018-11-25T06:42:47.875Z,100469.48
2018-11-25T06:45:24.515Z,100469.84
2018-11-25T06:47:53.798Z,100471.14
2018-11-25T06:50:22.395Z,100477.37
2018-11-25T06:52:50.909Z,100472.88
2018-11-25T06:55:20.122Z,100477.63
2018-11-25T06:57:48.712Z,100472.19
2018-11-25T07:00:21.521Z,100480.30
2018-11-25T07:02:50.104Z,100481.20
2018-11-25T07:05:19.788Z,100484.14
2018-11-25T07:07:48.307Z,100477.95
2018-11-25T07:10:18.842Z,100481.43
2018-11-25T07:12:48.324Z,100478.70
2018-11-25T07:15:17.891Z,100480.91
2018-11-25T07:17:46.563Z,100477.02
2018-11-25T07:20:16.147Z,100479.77
2018-11-25T07:22:44.669Z,100484.20
2018-11-25T07:25:16.245Z,100490.33
2018-11-25T07:27:44.934Z,100492.65
2018-11-25T07:30:24.940Z,100500.33
2018-11-25T07:32:53.625Z,100500.70
2018-11-25T07:35:22.991Z,100496.56
2018-11-25T07:37:51.530Z,100505.00
2018-11-25T07:40:21.134Z,100505.69
2018-11-25T07:42:50.125Z,100510.32
2018-11-25T07:45:19.759Z,100512.78
2018-11-25T07:47:48.273Z,100512.31
2018-11-25T07:50:17.754Z,100511.23
2018-11-25T07:52:47.407Z,100507.68
2018-11-25T07:55:17.971Z,100513.00
2018-11-25T07:57:47.134Z,100509.84
2018-11-25T08:00:18.646Z,100515.94
2018-11-25T08:02:47.248Z,100514.94
2018-11-25T08:05:18.063Z,100512.92
2018-11-25T08:07:46.645Z,100515.31
2018-11-25T08:10:15.978Z,100519.00
2018-11-25T08:12:45.129Z,100520.74
2018-11-25T08:15:14.442Z,100523.23
2018-11-25T08:17:42.977Z,100529.44
2018-11-25T08:20:14.568Z,100527.27
2018-11-25T08:22:43.094Z,100526.53
2018-11-25T08:25:14.444Z,100526.92
2018-11-25T08:27:43.069Z,100522.98
2018-11-25T08:30:28.522Z,100526.89
2018-11-25T08:32:57.014Z,100529.77
2018-11-25T08:35:26.339Z,100527.70
2018-11-25T08:37:54.895Z,100518.30
2018-11-25T08:40:24.711Z,100526.69
2018-11-25T08:42:53.449Z,100524.70
2018-11-25T08:45:22.044Z,100515.93
2018-11-25T08:47:50.558Z,100518.53
2018-11-25T08:50:20.008Z,100515.00
2018-11-25T08:52:50.759Z,100516.48
2018-11-25T08:55:22.250Z,100515.33
2018-11-25T08:57:50.739Z,100511.17
2018-11-25T09:00:20.645Z,100509.02
2018-11-25T09:02:50.009Z,100506.65
2018-11-25T09:05:18.535Z,100505.78
2018-11-25T09:07:47.181Z,100500.83
2018-11-25T09:10:17.258Z,100493.51
2018-11-25T09:12:55.168Z,100488.94
2018-11-25T09:15:19.749Z,100502.64
2018-11-25T09:17:48.289Z,100492.98
2018-11-25T09:20:18.837Z,100498.22
2018-11-25T09:22:47.348Z,100501.05
2018-11-25T09:25:17.193Z,100497.81
2018-11-25T09:27:45.670Z,100507.74
2018-11-25T09:30:17.516Z,100502.79
2018-11-25T09:32:46.183Z,100503.12
2018-11-25T09:35:15.580Z,100511.27
2018-11-25T09:37:44.188Z,100514.63
2018-11-25T09:40:16.627Z,100517.27
2018-11-25T09:42:45.190Z,100527.38
2018-11-25T09:45:14.700Z,100525.48
2018-11-25T09:47:43.700Z,100526.76
2018-11-25T09:50:14.382Z,100529.22
2018-11-25T09:52:42.936Z,100530.53
2018-11-25T09:55:13.530Z,100532.95
2018-11-25T09:57:43.322Z,100531.11
2018-11-25T10:00:17.992Z,100542.56
2018-11-25T10:02:46.649Z,100549.92
2018-11-25T10:05:16.254Z,100551.17
2018-11-25T10:07:45.382Z,100555.17
2018-11-25T10:10:17.047Z,100552.18
2018-11-25T10:12:45.589Z,100557.70
2018-11-25T10:15:15.947Z,100555.33
2018-11-25T10:17:44.533Z,100560.78
2018-11-25T10:20:15.886Z,100574.14
2018-11-25T10:22:44.703Z,100570.69
2018-11-25T10:25:14.267Z,100566.16
2018-11-25T10:27:42.834Z,100568.67
2018-11-25T10:30:19.690Z,100560.09
2018-11-25T10:32:49.267Z,100563.68
2018-11-25T10:35:17.746Z,100564.52
2018-11-25T10:37:46.264Z,100561.13
2018-11-25T10:40:16.767Z,100552.63
2018-11-25T10:42:45.230Z,100544.41
2018-11-25T10:45:15.846Z,100534.05
2018-11-25T10:47:44.398Z,100531.73
2018-11-25T10:50:16.863Z,100527.30
2018-11-25T10:52:45.435Z,100517.56
2018-11-25T10:55:14.868Z,100511.03
2018-11-25T10:57:44.178Z,100512.16
2018-11-25T11:00:37.392Z,100508.48
2018-11-25T11:03:12.505Z,100501.56
2018-11-25T11:05:46.283Z,100506.84
2018-11-25T11:08:14.933Z,100510.08
2018-11-25T11:10:43.427Z,100504.09
2018-11-25T11:13:11.973Z,100501.89
2018-11-25T11:15:40.459Z,100495.04
2018-11-25T11:18:08.976Z,100498.22
2018-11-25T11:20:37.621Z,100487.00
2018-11-25T11:23:06.654Z,100486.56
2018-11-25T11:25:35.170Z,100493.80
2018-11-25T11:28:03.735Z,100493.75
2018-11-25T11:30:32.293Z,100484.77
2018-11-25T11:33:00.843Z,100490.56
2018-11-25T11:35:29.398Z,100485.39
2018-11-25T11:37:58.129Z,100490.91
2018-11-25T11:40:26.631Z,100483.93
2018-11-25T11:42:55.118Z,100482.80
2018-11-25T11:45:23.833Z,100483.12
2018-11-25T11:47:52.316Z,100480.19
2018-11-25T11:50:21.999Z,100487.09
2018-11-25T11:52:50.684Z,100489.73
2018-11-25T11:55:20.365Z,100483.38
2018-11-25T11:57:49.117Z,100479.72
2018-11-25T12:00:28.822Z,100482.66
2018-11-25T12:02:57.338Z,100478.61
2018-11-25T12:05:25.836Z,100484.23
2018-11-25T12:07:54.352Z,100490.28
2018-11-25T12:10:22.829Z,100487.25
2018-11-25T12:12:51.728Z,100484.48
2018-11-25T12:15:30.841Z,100486.34
2018-11-25T12:17:56.843Z,100482.40
2018-11-25T12:20:26.242Z,100481.47
2018-11-25T12:22:55.487Z,100488.80
2018-11-25T12:25:24.024Z,100491.36
2018-11-25T12:27:52.856Z,100488.70
2018-11-25T12:30:21.375Z,100482.31
2018-11-25T12:32:51.031Z,100491.14
2018-11-25T12:35:19.729Z,100491.09
2018-11-25T12:37:48.241Z,100491.98
2018-11-25T12:40:17.938Z,100486.86
2018-11-25T12:42:47.706Z,100484.59
2018-11-25T12:45:17.050Z,100478.95
2018-11-25T12:47:45.638Z,100486.98
2018-11-25T12:50:17.995Z,100495.24
2018-11-25T12:52:46.724Z,100494.52
2018-11-25T12:55:16.383Z,100495.70
2018-11-25T12:57:44.869Z,100493.98
2018-11-25T13:00:19.991Z,100497.17
2018-11-25T13:02:48.487Z,100492.72
2018-11-25T13:05:16.983Z,100502.96
2018-11-25T13:07:45.634Z,100496.11
2018-11-25T13:10:14.182Z,100492.72
2018-11-25T13:12:42.715Z,100490.56
2018-11-25T13:15:11.286Z,100487.42
2018-11-25T13:17:39.811Z,100486.55
2018-11-25T13:20:12.354Z,100474.11
2018-11-25T13:22:41.258Z,100470.39
2018-11-25T13:25:14.773Z,100468.78
2018-11-25T13:27:43.411Z,100471.46
2018-11-25T13:30:18.195Z,100465.39
2018-11-25T13:32:47.219Z,100471.29
2018-11-25T13:35:15.788Z,100469.20
2018-11-25T13:37:44.268Z,100469.00
2018-11-25T13:40:14.000Z,100469.31
2018-11-25T13:42:42.504Z,100472.08
2018-11-25T13:45:11.407Z,100470.24
2018-11-25T13:47:39.994Z,100471.92
2018-11-25T13:50:09.689Z,100468.63
2018-11-25T13:52:38.209Z,100474.23
2018-11-25T13:55:09.616Z,100477.36
2018-11-25T13:57:38.140Z,100473.24
2018-11-25T14:00:31.594Z,100470.78
2018-11-25T14:03:00.237Z,100474.45
2018-11-25T14:05:28.817Z,100469.20
2018-11-25T14:07:57.289Z,100467.76
2018-11-25T14:10:28.580Z,100469.06
2018-11-25T14:12:57.086Z,100465.83
2018-11-25T14:15:25.920Z,100461.23
2018-11-25T14:17:54.535Z,100465.28
2018-11-25T14:20:23.034Z,100463.93
2018-11-25T14:22:51.588Z,100465.71
2018-11-25T14:25:21.210Z,100460.59
2018-11-25T14:27:52.738Z,100460.95
2018-11-25T14:30:22.975Z,100452.63
2018-11-25T14:32:51.507Z,100455.56
2018-11-25T14:35:20.164Z,100465.03
2018-11-25T14:37:48.631Z,100462.58
2018-11-25T14:40:18.490Z,100457.87
2018-11-25T14:42:47.044Z,100457.55
2018-11-25T14:45:16.687Z,100456.25
2018-11-25T14:47:45.174Z,100457.20
2018-11-25T14:50:15.768Z,100458.08
2018-11-25T14:52:45.242Z,100454.56
2018-11-25T14:55:14.694Z,100449.19
2018-11-25T14:57:43.162Z,100454.43
2018-11-25T15:00:21.048Z,100455.25
2018-11-25T15:02:51.051Z,100453.00
2018-11-25T15:05:38.933Z,100459.02
2018-11-25T15:08:08.446Z,100455.56
2018-11-25T15:10:36.940Z,100453.63
2018-11-25T15:13:05.873Z,100450.14
2018-11-25T15:15:34.391Z,100444.49
2018-11-25T15:18:02.863Z,100449.73
2018-11-25T15:20:31.803Z,100453.65
2018-11-25T15:23:02.130Z,100449.09
2018-11-25T15:25:34.431Z,100447.42
2018-11-25T15:28:02.939Z,100449.67
2018-11-25T15:30:31.469Z,100448.20
2018-11-25T15:33:00.058Z,100453.63
2018-11-25T15:35:28.603Z,100451.70
2018-11-25T15:37:57.186Z,100453.33
2018-11-25T15:40:28.767Z,100459.25
2018-11-25T15:42:57.346Z,100452.39
2018-11-25T15:45:25.959Z,100459.92
2018-11-25T15:48:57.274Z,100462.31
2018-11-25T15:51:25.756Z,100465.50
2018-11-25T15:53:54.234Z,100457.36
2018-11-25T15:56:22.778Z,100458.62
2018-11-25T15:58:51.300Z,100452.07
2018-11-25T16:01:19.803Z,100455.00
2018-11-25T16:03:48.416Z,100460.28
2018-11-25T16:06:23.971Z,100456.77
2018-11-25T16:08:52.458Z,100457.46
2018-11-25T16:11:21.155Z,100456.36
2018-11-25T16:13:49.658Z,100455.48
2018-11-25T16:16:18.146Z,100448.32
2018-11-25T16:18:46.814Z,100449.98
2018-11-25T16:21:15.272Z,100455.68
2018-11-25T16:23:43.787Z,100470.73
2018-11-25T16:26:21.696Z,100461.86
2018-11-25T16:28:52.082Z,100457.94
2018-11-25T16:31:20.580Z,100453.23
2018-11-25T16:33:49.270Z,100449.84
2018-11-25T16:36:17.795Z,100439.70
2018-11-25T16:38:46.292Z,100438.06
2018-11-25T16:41:14.885Z,100438.06
2018-11-25T16:43:43.371Z,100442.00
2018-11-25T16:46:11.905Z,100445.27
2018-11-25T16:48:40.398Z,100448.36
2018-11-25T16:51:08.909Z,100448.89
2018-11-25T16:53:37.414Z,100455.73
2018-11-25T16:56:06.046Z,100458.83
2018-11-25T16:58:34.568Z,100452.17
2018-11-25T17:01:09.580Z,100454.79
2018-11-25T17:03:31.843Z,100458.05
2018-11-25T17:06:00.335Z,100451.52
2018-11-25T17:08:32.757Z,100450.87
2018-11-25T17:11:01.905Z,100463.47
2018-11-25T17:13:30.016Z,100459.70
2018-11-25T17:15:58.585Z,100462.48
2018-11-25T17:18:27.094Z,100452.71
2018-11-25T17:20:55.600Z,100456.00
2018-11-25T17:23:24.126Z,100457.78
2018-11-25T17:25:52.614Z,100454.22
2018-11-25T17:28:21.202Z,100447.05
2018-11-25T17:30:49.708Z,100444.91
2018-11-25T17:33:18.202Z,100442.81
2018-11-25T17:35:46.730Z,100448.36
2018-11-25T17:38:15.193Z,100449.52
2018-11-25T17:40:43.759Z,100450.66
2018-11-25T17:43:15.175Z,100448.84
2018-11-25T17:45:43.736Z,100455.53
2018-11-25T17:48:12.226Z,100450.30
2018-11-25T17:50:40.731Z,100455.09
2018-11-25T17:53:09.638Z,100464.09
2018-11-25T17:55:38.125Z,100458.66
2018-11-25T17:58:06.734Z,100454.11
2018-11-25T18:00:39.150Z,100461.80
2018-11-25T18:03:10.515Z,100467.86
2018-11-25T18:05:39.084Z,100465.92
2018-11-25T18:08:07.819Z,100466.39
2018-11-25T18:10:36.355Z,100461.84
2018-11-25T18:13:05.092Z,100465.41
2018-11-25T18:15:33.670Z,100456.13
2018-11-25T18:18:03.747Z,100463.98
2018-11-25T18:20:44.379Z,100466.08
2018-11-25T18:23:12.881Z,100470.36
2018-11-25T18:25:41.479Z,100477.37
2018-11-25T18:28:10.099Z,100478.56
2018-11-25T18:30:38.659Z,100478.88
2018-11-25T18:33:07.158Z,100480.50
2018-11-25T18:35:35.718Z,100474.13
2018-11-25T18:38:04.276Z,100472.30
2018-11-25T18:40:32.863Z,100475.12
2018-11-25T18:43:01.356Z,100482.65
2018-11-25T18:45:29.918Z,100482.13
2018-11-25T18:47:58.506Z,100485.84
2018-11-25T18:50:27.040Z,100488.45
2018-11-25T18:52:55.673Z,100492.59
2018-11-25T18:55:23.047Z,100488.34
2018-11-25T18:57:51.509Z,100494.57
2018-11-25T19:02:28.496Z,100496.55
2018-11-25T19:04:57.015Z,100501.57
2018-11-25T19:07:25.535Z,100505.51
2018-11-25T19:09:54.101Z,100502.61
2018-11-25T19:12:22.629Z,100489.38
2018-11-25T19:14:51.098Z,100485.77
2018-11-25T19:17:19.659Z,100483.48
2018-11-25T19:19:48.163Z,100484.83
2018-11-25T19:22:16.708Z,100476.31
2018-11-25T19:24:45.202Z,100475.12
2018-11-25T19:27:13.775Z,100475.16
2018-11-25T19:29:42.340Z,100472.70
2018-11-25T19:32:10.907Z,100474.37
2018-11-25T19:34:39.424Z,100462.80
2018-11-25T19:37:07.914Z,100464.27
2018-11-25T19:39:36.497Z,100472.39
2018-11-25T19:42:05.385Z,100468.47
2018-11-25T19:44:33.939Z,100469.46
2018-11-25T19:47:02.422Z,100472.71
2018-11-25T19:49:31.028Z,100469.77
2018-11-25T19:51:59.600Z,100466.53
2018-11-25T19:54:28.104Z,100463.55
2018-11-25T19:56:56.604Z,100466.69
2018-11-25T19:59:25.136Z,100470.92
2018-11-25T20:01:53.631Z,100472.87
2018-11-25T20:04:22.110Z,100470.73
2018-11-25T20:06:50.632Z,100471.72
2018-11-25T20:09:19.338Z,100474.22
2018-11-25T20:11:47.862Z,100477.63
2018-11-25T20:14:16.434Z,100466.25
2018-11-25T20:16:50.110Z,100470.45
2018-11-25T20:19:18.598Z,100472.55
2018-11-25T20:21:52.248Z,100477.30
2018-11-25T20:24:20.787Z,100480.59
2018-11-25T20:26:54.432Z,100479.92
2018-11-25T20:29:22.995Z,100484.52
2018-11-25T20:31:55.765Z,100493.31
2018-11-25T20:34:24.380Z,100495.80
2018-11-25T20:36:52.932Z,100489.91
2018-11-25T20:39:26.765Z,100495.93
2018-11-25T20:41:55.268Z,100491.17
2018-11-25T20:44:23.740Z,100489.39
2018-11-25T20:46:57.572Z,100493.83
2018-11-25T20:49:26.082Z,100494.14
2018-11-25T20:51:59.940Z,100499.38
2018-11-25T20:54:28.451Z,100501.52
2018-11-25T20:56:57.066Z,100499.06
2018-11-25T20:59:25.568Z,100492.84
2018-11-25T21:01:54.130Z,100492.20
2018-11-25T21:04:23.047Z,100489.75
2018-11-25T21:06:51.611Z,100487.92
2018-11-25T21:09:20.195Z,100486.82
2018-11-25T21:11:48.714Z,100480.28
2018-11-25T21:14:17.234Z,100482.73
2018-11-25T21:16:45.697Z,100488.59
2018-11-25T21:19:14.299Z,100493.78
2018-11-25T21:21:42.791Z,100501.83
2018-11-25T21:24:11.275Z,100492.95
2018-11-25T21:26:39.735Z,100493.78
2018-11-25T21:29:08.263Z,100502.30
2018-11-25T21:31:36.771Z,100500.52
2018-11-25T21:34:05.367Z,100497.23
2018-11-25T21:36:33.853Z,100496.91
2018-11-25T21:39:02.331Z,100499.53
2018-11-25T21:41:30.820Z,100502.36
2018-11-25T21:43:59.355Z,100505.55
2018-11-25T21:46:27.878Z,100495.80
2018-11-25T21:48:56.370Z,100505.80
2018-11-25T21:51:24.874Z,100501.91
2018-11-25T21:53:53.402Z,100512.66
2018-11-25T21:56:21.912Z,100512.18
2018-11-25T21:58:50.457Z,100517.09
2018-11-25T22:01:18.970Z,100513.69
2018-11-25T22:03:47.486Z,100519.55
2018-11-25T22:06:15.970Z,100508.45
2018-11-25T22:08:44.543Z,100508.62
2018-11-25T22:11:13.043Z,100513.02
2018-11-25T22:13:41.544Z,100511.87
2018-11-25T22:16:10.057Z,100515.98
2018-11-25T22:18:38.574Z,100511.43
2018-11-25T22:21:07.167Z,100503.74
2018-11-25T22:23:35.622Z,100510.60
2018-11-25T22:26:04.096Z,100509.45
2018-11-25T22:28:32.582Z,100508.46
2018-11-25T22:31:01.064Z,100514.52
2018-11-25T22:33:29.584Z,100521.38
2018-11-25T22:35:58.102Z,100520.86
2018-11-25T22:38:26.694Z,100519.75
2018-11-25T22:40:55.356Z,100520.59
2018-11-25T22:43:23.870Z,100517.66
2018-11-25T22:45:52.350Z,100519.64
2018-11-25T22:48:20.850Z,100517.30
2018-11-25T22:50:49.375Z,100509.92
2018-11-25T22:53:17.867Z,100516.98
2018-11-25T22:55:46.386Z,100522.05
2018-11-25T22:58:14.903Z,100521.54
2018-11-25T23:00:44.168Z,100524.78
2018-11-25T23:03:12.685Z,100521.34
2018-11-25T23:05:52.366Z,100523.84
2018-11-25T23:08:20.858Z,100523.05
2018-11-25T23:10:49.423Z,100518.97
2018-11-25T23:13:17.981Z,100511.80
2018-11-25T23:15:46.498Z,100520.59
2018-11-25T23:18:15.011Z,100519.13
2018-11-25T23:20:43.571Z,100512.91
2018-11-25T23:23:12.113Z,100512.70
2018-11-25T23:25:40.598Z,100512.42
2018-11-25T23:28:09.121Z,100512.91
2018-11-25T23:30:37.618Z,100506.41
2018-11-25T23:33:06.252Z,100506.36
2018-11-25T23:35:35.170Z,100506.20
2018-11-25T23:38:03.694Z,100504.45
2018-11-25T23:40:32.191Z,100504.58
2018-11-25T23:43:00.759Z,100501.80
2018-11-25T23:45:29.334Z,100497.69
2018-11-25T23:47:57.968Z,100488.53
2018-11-25T23:50:26.435Z,100499.50
2018-11-25T23:52:54.909Z,100499.34
2018-11-25T23:55:23.418Z,100506.72
2018-11-25T23:57:51.951Z,100503.94
